sensor_id;sensor_type;location;lat;lon;timestamp;temperature;humidity
22147;DHT22;13074;48.298;14.424;2023-09-19T00:00:19;18.50;99.90
22147;DHT22;13074;48.298;14.424;2023-09-19T00:02:52;18.60;99.90
22147;DHT22;13074;48.298;14.424;2023-09-19T00:05:19;18.50;99.90
22147;DHT22;13074;48.298;14.424;2023-09-19T00:07:50;18.60;99.90
22147;DHT22;13074;48.298;14.424;2023-09-19T00:10:20;18.60;99.90
22147;DHT22;13074;48.298;14.424;2023-09-19T00:12:50;18.60;99.90
22147;DHT22;13074;48.298;14.424;2023-09-19T00:15:18;18.60;99.90
22147;DHT22;13074;48.298;14.424;2023-09-19T00:17:46;18.60;99.90
22147;DHT22;13074;48.298;14.424;2023-09-19T00:20:13;18.60;99.90
22147;DHT22;13074;48.298;14.424;2023-09-19T00:22:43;18.70;99.90
22147;DHT22;13074;48.298;14.424;2023-09-19T00:25:11;18.60;99.90
22147;DHT22;13074;48.298;14.424;2023-09-19T00:27:41;18.60;99.90
22147;DHT22;13074;48.298;14.424;2023-09-19T00:30:10;18.60;99.90
22147;DHT22;13074;48.298;14.424;2023-09-19T00:32:42;18.60;99.90
22147;DHT22;13074;48.298;14.424;2023-09-19T00:35:10;18.70;99.90
22147;DHT22;13074;48.298;14.424;2023-09-19T00:37:37;18.60;99.90
22147;DHT22;13074;48.298;14.424;2023-09-19T00:40:07;18.60;99.90
22147;DHT22;13074;48.298;14.424;2023-09-19T00:42:38;18.70;99.90
22147;DHT22;13074;48.298;14.424;2023-09-19T00:45:07;18.70;99.90
22147;DHT22;13074;48.298;14.424;2023-09-19T00:47:39;18.70;99.90
22147;DHT22;13074;48.298;14.424;2023-09-19T00:50:08;18.70;99.90
22147;DHT22;13074;48.298;14.424;2023-09-19T00:52:37;18.70;99.90
22147;DHT22;13074;48.298;14.424;2023-09-19T00:55:06;18.70;99.90
22147;DHT22;13074;48.298;14.424;2023-09-19T00:57:33;18.70;99.90
22147;DHT22;13074;48.298;14.424;2023-09-19T01:00:01;18.70;99.90
22147;DHT22;13074;48.298;14.424;2023-09-19T01:02:31;18.70;99.90
22147;DHT22;13074;48.298;14.424;2023-09-19T01:05:00;18.70;99.90
22147;DHT22;13074;48.298;14.424;2023-09-19T01:07:30;18.70;99.90
22147;DHT22;13074;48.298;14.424;2023-09-19T01:09:59;18.70;99.90
22147;DHT22;13074;48.298;14.424;2023-09-19T01:12:33;18.70;99.90
22147;DHT22;13074;48.298;14.424;2023-09-19T01:15:09;18.70;99.90
22147;DHT22;13074;48.298;14.424;2023-09-19T01:17:46;18.70;99.90
22147;DHT22;13074;48.298;14.424;2023-09-19T01:20:24;18.70;99.90
22147;DHT22;13074;48.298;14.424;2023-09-19T01:23:03;18.70;99.90
22147;DHT22;13074;48.298;14.424;2023-09-19T01:25:55;18.70;99.90
22147;DHT22;13074;48.298;14.424;2023-09-19T01:28:32;18.70;99.90
22147;DHT22;13074;48.298;14.424;2023-09-19T01:31:04;18.70;99.90
22147;DHT22;13074;48.298;14.424;2023-09-19T01:33:53;18.70;99.90
22147;DHT22;13074;48.298;14.424;2023-09-19T01:36:21;18.60;99.90
22147;DHT22;13074;48.298;14.424;2023-09-19T01:38:49;18.70;99.90
22147;DHT22;13074;48.298;14.424;2023-09-19T01:41:33;18.70;99.90
22147;DHT22;13074;48.298;14.424;2023-09-19T01:44:08;18.60;99.90
22147;DHT22;13074;48.298;14.424;2023-09-19T01:46:40;18.70;99.90
22147;DHT22;13074;48.298;14.424;2023-09-19T01:49:16;18.60;99.90
22147;DHT22;13074;48.298;14.424;2023-09-19T01:51:55;18.60;99.90
22147;DHT22;13074;48.298;14.424;2023-09-19T01:54:27;18.60;99.90
22147;DHT22;13074;48.298;14.424;2023-09-19T01:57:01;18.60;99.90
22147;DHT22;13074;48.298;14.424;2023-09-19T01:59:36;18.60;99.90
22147;DHT22;13074;48.298;14.424;2023-09-19T02:02:08;18.60;99.90
22147;DHT22;13074;48.298;14.424;2023-09-19T02:04:36;18.50;99.90
22147;DHT22;13074;48.298;14.424;2023-09-19T02:07:03;18.50;99.90
22147;DHT22;13074;48.298;14.424;2023-09-19T02:09:34;18.40;99.90
22147;DHT22;13074;48.298;14.424;2023-09-19T02:12:05;18.40;99.90
22147;DHT22;13074;48.298;14.424;2023-09-19T02:14:33;18.40;99.90
22147;DHT22;13074;48.298;14.424;2023-09-19T02:17:02;18.30;99.90
22147;DHT22;13074;48.298;14.424;2023-09-19T02:19:32;18.30;99.90
22147;DHT22;13074;48.298;14.424;2023-09-19T02:22:00;18.30;99.90
22147;DHT22;13074;48.298;14.424;2023-09-19T02:24:29;18.30;99.90
22147;DHT22;13074;48.298;14.424;2023-09-19T02:26:56;18.30;99.90
22147;DHT22;13074;48.298;14.424;2023-09-19T02:29:25;18.20;99.90
22147;DHT22;13074;48.298;14.424;2023-09-19T02:31:52;18.20;99.90
22147;DHT22;13074;48.298;14.424;2023-09-19T02:34:21;18.20;99.90
22147;DHT22;13074;48.298;14.424;2023-09-19T02:36:50;18.10;99.90
22147;DHT22;13074;48.298;14.424;2023-09-19T02:39:19;18.10;99.90
22147;DHT22;13074;48.298;14.424;2023-09-19T02:41:46;18.10;99.90
22147;DHT22;13074;48.298;14.424;2023-09-19T02:44:13;18.00;99.90
22147;DHT22;13074;48.298;14.424;2023-09-19T02:46:41;18.00;99.90
22147;DHT22;13074;48.298;14.424;2023-09-19T02:49:09;17.90;99.90
22147;DHT22;13074;48.298;14.424;2023-09-19T02:51:36;17.90;99.90
22147;DHT22;13074;48.298;14.424;2023-09-19T02:54:05;17.90;99.90
22147;DHT22;13074;48.298;14.424;2023-09-19T02:56:32;17.80;99.90
22147;DHT22;13074;48.298;14.424;2023-09-19T02:59:01;17.80;99.90
22147;DHT22;13074;48.298;14.424;2023-09-19T03:01:28;17.80;99.90
22147;DHT22;13074;48.298;14.424;2023-09-19T03:03:56;17.70;99.90
22147;DHT22;13074;48.298;14.424;2023-09-19T03:06:23;17.70;99.90
22147;DHT22;13074;48.298;14.424;2023-09-19T03:08:50;17.70;99.90
22147;DHT22;13074;48.298;14.424;2023-09-19T03:11:19;17.70;99.90
22147;DHT22;13074;48.298;14.424;2023-09-19T03:13:51;17.60;99.90
22147;DHT22;13074;48.298;14.424;2023-09-19T03:16:19;17.60;99.90
22147;DHT22;13074;48.298;14.424;2023-09-19T03:18:47;17.60;99.90
22147;DHT22;13074;48.298;14.424;2023-09-19T03:21:15;17.50;99.90
22147;DHT22;13074;48.298;14.424;2023-09-19T03:23:43;17.50;99.90
22147;DHT22;13074;48.298;14.424;2023-09-19T03:26:12;17.50;99.90
22147;DHT22;13074;48.298;14.424;2023-09-19T03:28:41;17.50;99.90
22147;DHT22;13074;48.298;14.424;2023-09-19T03:31:09;17.40;99.90
22147;DHT22;13074;48.298;14.424;2023-09-19T03:33:36;17.30;99.90
22147;DHT22;13074;48.298;14.424;2023-09-19T03:36:04;17.30;99.90
22147;DHT22;13074;48.298;14.424;2023-09-19T03:38:33;17.20;99.90
22147;DHT22;13074;48.298;14.424;2023-09-19T03:41:00;17.20;99.90
22147;DHT22;13074;48.298;14.424;2023-09-19T03:43:28;17.20;99.90
22147;DHT22;13074;48.298;14.424;2023-09-19T03:45:56;17.10;99.90
22147;DHT22;13074;48.298;14.424;2023-09-19T03:48:26;17.10;99.90
22147;DHT22;13074;48.298;14.424;2023-09-19T03:50:53;17.10;99.90
22147;DHT22;13074;48.298;14.424;2023-09-19T03:53:22;17.10;99.90
22147;DHT22;13074;48.298;14.424;2023-09-19T03:55:49;17.20;99.90
22147;DHT22;13074;48.298;14.424;2023-09-19T03:58:16;17.10;99.90
22147;DHT22;13074;48.298;14.424;2023-09-19T04:00:44;17.10;99.90
22147;DHT22;13074;48.298;14.424;2023-09-19T04:03:13;17.10;99.90
22147;DHT22;13074;48.298;14.424;2023-09-19T04:05:45;17.10;99.90
22147;DHT22;13074;48.298;14.424;2023-09-19T04:08:13;17.10;99.90
22147;DHT22;13074;48.298;14.424;2023-09-19T04:10:42;17.10;99.90
22147;DHT22;13074;48.298;14.424;2023-09-19T04:13:10;17.10;99.90
22147;DHT22;13074;48.298;14.424;2023-09-19T04:15:37;17.10;99.90
22147;DHT22;13074;48.298;14.424;2023-09-19T04:18:06;17.10;99.90
22147;DHT22;13074;48.298;14.424;2023-09-19T04:20:34;17.20;99.90
22147;DHT22;13074;48.298;14.424;2023-09-19T04:23:02;17.20;99.90
22147;DHT22;13074;48.298;14.424;2023-09-19T04:25:30;17.30;99.90
22147;DHT22;13074;48.298;14.424;2023-09-19T04:27:57;17.30;99.90
22147;DHT22;13074;48.298;14.424;2023-09-19T04:30:24;17.40;99.90
22147;DHT22;13074;48.298;14.424;2023-09-19T04:32:52;17.40;99.90
22147;DHT22;13074;48.298;14.424;2023-09-19T04:35:19;17.50;99.90
22147;DHT22;13074;48.298;14.424;2023-09-19T04:37:48;17.50;99.90
22147;DHT22;13074;48.298;14.424;2023-09-19T04:40:17;17.50;99.90
22147;DHT22;13074;48.298;14.424;2023-09-19T04:42:44;17.50;99.90
22147;DHT22;13074;48.298;14.424;2023-09-19T04:45:12;17.50;99.90
22147;DHT22;13074;48.298;14.424;2023-09-19T04:47:40;17.40;99.90
22147;DHT22;13074;48.298;14.424;2023-09-19T04:50:09;17.40;99.90
22147;DHT22;13074;48.298;14.424;2023-09-19T04:52:40;17.40;99.90
22147;DHT22;13074;48.298;14.424;2023-09-19T04:55:12;17.40;99.90
22147;DHT22;13074;48.298;14.424;2023-09-19T04:57:42;17.40;99.90
22147;DHT22;13074;48.298;14.424;2023-09-19T05:00:11;17.40;99.90
22147;DHT22;13074;48.298;14.424;2023-09-19T05:02:40;17.40;99.90
22147;DHT22;13074;48.298;14.424;2023-09-19T05:05:08;17.50;99.90
22147;DHT22;13074;48.298;14.424;2023-09-19T05:07:38;17.50;99.90
22147;DHT22;13074;48.298;14.424;2023-09-19T05:10:07;17.50;99.90
22147;DHT22;13074;48.298;14.424;2023-09-19T05:12:36;17.50;99.90
22147;DHT22;13074;48.298;14.424;2023-09-19T05:15:03;17.50;99.90
22147;DHT22;13074;48.298;14.424;2023-09-19T05:17:32;17.50;99.90
22147;DHT22;13074;48.298;14.424;2023-09-19T05:20:00;17.50;99.90
22147;DHT22;13074;48.298;14.424;2023-09-19T05:22:41;17.50;99.90
22147;DHT22;13074;48.298;14.424;2023-09-19T05:25:09;17.60;99.90
22147;DHT22;13074;48.298;14.424;2023-09-19T05:27:37;17.60;99.90
22147;DHT22;13074;48.298;14.424;2023-09-19T05:30:06;17.50;99.90
22147;DHT22;13074;48.298;14.424;2023-09-19T05:32:33;17.60;99.90
22147;DHT22;13074;48.298;14.424;2023-09-19T05:35:00;17.60;99.90
22147;DHT22;13074;48.298;14.424;2023-09-19T05:37:29;17.60;99.90
22147;DHT22;13074;48.298;14.424;2023-09-19T05:39:56;17.60;99.90
22147;DHT22;13074;48.298;14.424;2023-09-19T05:42:23;17.70;99.90
22147;DHT22;13074;48.298;14.424;2023-09-19T05:44:51;17.70;99.90
22147;DHT22;13074;48.298;14.424;2023-09-19T05:47:18;17.80;99.90
22147;DHT22;13074;48.298;14.424;2023-09-19T05:49:46;17.80;99.90
22147;DHT22;13074;48.298;14.424;2023-09-19T05:52:15;17.90;99.90
22147;DHT22;13074;48.298;14.424;2023-09-19T05:54:43;18.00;99.90
22147;DHT22;13074;48.298;14.424;2023-09-19T05:57:10;18.00;99.90
22147;DHT22;13074;48.298;14.424;2023-09-19T05:59:38;18.00;99.90
22147;DHT22;13074;48.298;14.424;2023-09-19T06:02:07;18.00;99.90
22147;DHT22;13074;48.298;14.424;2023-09-19T06:04:35;18.00;99.90
22147;DHT22;13074;48.298;14.424;2023-09-19T06:07:06;18.10;99.90
22147;DHT22;13074;48.298;14.424;2023-09-19T06:09:33;18.20;99.90
22147;DHT22;13074;48.298;14.424;2023-09-19T06:12:01;18.20;99.90
22147;DHT22;13074;48.298;14.424;2023-09-19T06:14:30;18.30;99.90
22147;DHT22;13074;48.298;14.424;2023-09-19T06:16:57;18.30;99.90
22147;DHT22;13074;48.298;14.424;2023-09-19T06:19:27;18.40;99.90
22147;DHT22;13074;48.298;14.424;2023-09-19T06:21:54;18.40;99.90
22147;DHT22;13074;48.298;14.424;2023-09-19T06:24:22;18.40;99.90
22147;DHT22;13074;48.298;14.424;2023-09-19T06:26:49;18.40;99.90
22147;DHT22;13074;48.298;14.424;2023-09-19T06:29:18;18.50;99.90
22147;DHT22;13074;48.298;14.424;2023-09-19T06:31:46;18.40;99.90
22147;DHT22;13074;48.298;14.424;2023-09-19T06:34:14;18.50;99.90
22147;DHT22;13074;48.298;14.424;2023-09-19T06:36:44;18.50;99.90
22147;DHT22;13074;48.298;14.424;2023-09-19T06:39:12;18.50;99.90
22147;DHT22;13074;48.298;14.424;2023-09-19T06:41:39;18.40;99.90
22147;DHT22;13074;48.298;14.424;2023-09-19T06:44:07;18.30;99.90
22147;DHT22;13074;48.298;14.424;2023-09-19T06:46:35;18.20;99.90
22147;DHT22;13074;48.298;14.424;2023-09-19T06:49:04;18.10;99.90
22147;DHT22;13074;48.298;14.424;2023-09-19T06:51:32;18.10;99.90
22147;DHT22;13074;48.298;14.424;2023-09-19T06:54:01;18.10;99.90
22147;DHT22;13074;48.298;14.424;2023-09-19T06:56:30;18.30;99.90
22147;DHT22;13074;48.298;14.424;2023-09-19T06:58:58;18.70;99.90
22147;DHT22;13074;48.298;14.424;2023-09-19T07:01:26;18.90;99.90
22147;DHT22;13074;48.298;14.424;2023-09-19T07:03:53;19.00;99.90
22147;DHT22;13074;48.298;14.424;2023-09-19T07:06:20;19.10;99.90
22147;DHT22;13074;48.298;14.424;2023-09-19T07:08:48;19.20;99.90
22147;DHT22;13074;48.298;14.424;2023-09-19T07:11:17;19.40;99.90
22147;DHT22;13074;48.298;14.424;2023-09-19T07:13:45;19.70;99.90
22147;DHT22;13074;48.298;14.424;2023-09-19T07:16:13;19.90;99.90
22147;DHT22;13074;48.298;14.424;2023-09-19T07:18:53;19.90;99.90
22147;DHT22;13074;48.298;14.424;2023-09-19T07:21:21;20.10;99.90
22147;DHT22;13074;48.298;14.424;2023-09-19T07:24:06;20.40;99.90
22147;DHT22;13074;48.298;14.424;2023-09-19T07:26:35;20.70;99.90
22147;DHT22;13074;48.298;14.424;2023-09-19T07:29:02;20.80;99.90
22147;DHT22;13074;48.298;14.424;2023-09-19T07:31:30;20.80;99.90
22147;DHT22;13074;48.298;14.424;2023-09-19T07:33:57;20.80;99.90
22147;DHT22;13074;48.298;14.424;2023-09-19T07:36:25;20.70;99.90
22147;DHT22;13074;48.298;14.424;2023-09-19T07:38:52;20.70;99.90
22147;DHT22;13074;48.298;14.424;2023-09-19T07:41:20;20.70;99.90
22147;DHT22;13074;48.298;14.424;2023-09-19T07:43:49;20.80;99.90
22147;DHT22;13074;48.298;14.424;2023-09-19T07:46:16;21.00;99.90
22147;DHT22;13074;48.298;14.424;2023-09-19T07:48:44;21.40;99.90
22147;DHT22;13074;48.298;14.424;2023-09-19T07:51:14;21.60;99.90
22147;DHT22;13074;48.298;14.424;2023-09-19T07:53:42;21.70;99.90
22147;DHT22;13074;48.298;14.424;2023-09-19T07:56:10;21.70;99.90
22147;DHT22;13074;48.298;14.424;2023-09-19T07:58:39;21.70;99.90
22147;DHT22;13074;48.298;14.424;2023-09-19T08:01:11;21.70;99.90
22147;DHT22;13074;48.298;14.424;2023-09-19T08:03:39;21.70;99.90
22147;DHT22;13074;48.298;14.424;2023-09-19T08:06:09;21.80;99.90
22147;DHT22;13074;48.298;14.424;2023-09-19T08:08:36;22.00;99.90
22147;DHT22;13074;48.298;14.424;2023-09-19T08:11:04;22.10;99.90
22147;DHT22;13074;48.298;14.424;2023-09-19T08:13:37;22.20;99.90
22147;DHT22;13074;48.298;14.424;2023-09-19T08:16:09;22.30;99.90
22147;DHT22;13074;48.298;14.424;2023-09-19T08:18:38;22.30;99.90
22147;DHT22;13074;48.298;14.424;2023-09-19T08:21:06;22.20;99.90
22147;DHT22;13074;48.298;14.424;2023-09-19T08:23:36;22.20;99.90
22147;DHT22;13074;48.298;14.424;2023-09-19T08:26:04;22.30;99.90
22147;DHT22;13074;48.298;14.424;2023-09-19T08:28:32;22.10;99.90
22147;DHT22;13074;48.298;14.424;2023-09-19T08:31:02;21.90;99.90
22147;DHT22;13074;48.298;14.424;2023-09-19T08:33:32;21.70;99.90
22147;DHT22;13074;48.298;14.424;2023-09-19T08:36:01;21.80;99.90
22147;DHT22;13074;48.298;14.424;2023-09-19T08:38:31;21.80;99.90
22147;DHT22;13074;48.298;14.424;2023-09-19T08:40:59;21.80;99.90
22147;DHT22;13074;48.298;14.424;2023-09-19T08:43:27;21.60;99.90
22147;DHT22;13074;48.298;14.424;2023-09-19T08:45:58;21.70;99.90
22147;DHT22;13074;48.298;14.424;2023-09-19T08:48:32;21.70;99.90
22147;DHT22;13074;48.298;14.424;2023-09-19T08:51:03;21.60;99.90
22147;DHT22;13074;48.298;14.424;2023-09-19T08:53:41;21.70;99.90
22147;DHT22;13074;48.298;14.424;2023-09-19T08:56:12;21.60;99.90
22147;DHT22;13074;48.298;14.424;2023-09-19T08:58:45;21.50;99.90
22147;DHT22;13074;48.298;14.424;2023-09-19T09:01:15;21.20;99.90
22147;DHT22;13074;48.298;14.424;2023-09-19T09:03:44;21.20;99.90
22147;DHT22;13074;48.298;14.424;2023-09-19T09:06:16;21.30;99.90
22147;DHT22;13074;48.298;14.424;2023-09-19T09:08:44;21.40;99.90
22147;DHT22;13074;48.298;14.424;2023-09-19T09:11:12;21.60;99.90
22147;DHT22;13074;48.298;14.424;2023-09-19T09:13:40;21.80;99.90
22147;DHT22;13074;48.298;14.424;2023-09-19T09:16:07;22.00;99.90
22147;DHT22;13074;48.298;14.424;2023-09-19T09:18:35;22.10;99.90
22147;DHT22;13074;48.298;14.424;2023-09-19T09:21:03;22.30;99.90
22147;DHT22;13074;48.298;14.424;2023-09-19T09:23:32;22.40;99.90
22147;DHT22;13074;48.298;14.424;2023-09-19T09:26:00;22.50;99.90
22147;DHT22;13074;48.298;14.424;2023-09-19T09:28:30;22.50;99.90
22147;DHT22;13074;48.298;14.424;2023-09-19T09:30:59;22.40;99.90
22147;DHT22;13074;48.298;14.424;2023-09-19T09:33:28;22.50;99.90
22147;DHT22;13074;48.298;14.424;2023-09-19T09:35:58;22.60;99.90
22147;DHT22;13074;48.298;14.424;2023-09-19T09:38:27;22.60;99.90
22147;DHT22;13074;48.298;14.424;2023-09-19T09:41:00;22.50;99.90
22147;DHT22;13074;48.298;14.424;2023-09-19T09:43:33;22.70;99.90
22147;DHT22;13074;48.298;14.424;2023-09-19T09:46:09;22.70;99.90
22147;DHT22;13074;48.298;14.424;2023-09-19T09:48:59;22.70;99.90
22147;DHT22;13074;48.298;14.424;2023-09-19T09:51:43;22.80;99.90
22147;DHT22;13074;48.298;14.424;2023-09-19T09:54:13;23.00;99.90
22147;DHT22;13074;48.298;14.424;2023-09-19T09:56:56;23.00;99.90
22147;DHT22;13074;48.298;14.424;2023-09-19T09:59:50;22.70;99.90
22147;DHT22;13074;48.298;14.424;2023-09-19T10:02:20;22.70;99.90
22147;DHT22;13074;48.298;14.424;2023-09-19T10:04:52;22.80;99.90
22147;DHT22;13074;48.298;14.424;2023-09-19T10:07:28;22.80;99.90
22147;DHT22;13074;48.298;14.424;2023-09-19T10:10:02;22.80;99.90
22147;DHT22;13074;48.298;14.424;2023-09-19T10:12:45;22.70;99.90
22147;DHT22;13074;48.298;14.424;2023-09-19T10:15:15;22.70;99.90
22147;DHT22;13074;48.298;14.424;2023-09-19T10:17:43;22.70;99.90
22147;DHT22;13074;48.298;14.424;2023-09-19T10:20:16;22.60;99.90
22147;DHT22;13074;48.298;14.424;2023-09-19T10:23:06;22.50;99.90
22147;DHT22;13074;48.298;14.424;2023-09-19T10:25:39;22.70;99.90
22147;DHT22;13074;48.298;14.424;2023-09-19T10:28:09;22.80;99.90
22147;DHT22;13074;48.298;14.424;2023-09-19T10:30:38;22.90;99.90
22147;DHT22;13074;48.298;14.424;2023-09-19T10:33:10;22.90;99.90
22147;DHT22;13074;48.298;14.424;2023-09-19T10:35:39;23.00;99.90
22147;DHT22;13074;48.298;14.424;2023-09-19T10:38:11;23.30;99.90
22147;DHT22;13074;48.298;14.424;2023-09-19T10:40:39;23.40;99.90
22147;DHT22;13074;48.298;14.424;2023-09-19T10:43:15;23.60;99.90
22147;DHT22;13074;48.298;14.424;2023-09-19T10:45:45;24.00;99.90
22147;DHT22;13074;48.298;14.424;2023-09-19T10:48:15;24.30;99.90
22147;DHT22;13074;48.298;14.424;2023-09-19T10:50:48;24.60;99.90
22147;DHT22;13074;48.298;14.424;2023-09-19T10:53:16;24.90;99.90
22147;DHT22;13074;48.298;14.424;2023-09-19T10:55:50;25.10;99.90
22147;DHT22;13074;48.298;14.424;2023-09-19T10:58:28;25.30;99.90
22147;DHT22;13074;48.298;14.424;2023-09-19T11:00:57;25.40;99.90
22147;DHT22;13074;48.298;14.424;2023-09-19T11:03:31;25.70;99.90
22147;DHT22;13074;48.298;14.424;2023-09-19T11:06:10;25.80;99.90
22147;DHT22;13074;48.298;14.424;2023-09-19T11:08:57;25.80;99.90
22147;DHT22;13074;48.298;14.424;2023-09-19T11:11:43;25.30;99.90
22147;DHT22;13074;48.298;14.424;2023-09-19T11:14:37;24.40;99.90
22147;DHT22;13074;48.298;14.424;2023-09-19T11:17:32;23.80;99.90
22147;DHT22;13074;48.298;14.424;2023-09-19T11:23:23;23.10;99.90
22147;DHT22;13074;48.298;14.424;2023-09-19T11:25:53;23.10;99.90
22147;DHT22;13074;48.298;14.424;2023-09-19T11:28:31;23.10;99.90
22147;DHT22;13074;48.298;14.424;2023-09-19T11:30:58;23.30;99.90
22147;DHT22;13074;48.298;14.424;2023-09-19T11:33:26;23.30;99.90
22147;DHT22;13074;48.298;14.424;2023-09-19T11:36:03;23.20;99.90
22147;DHT22;13074;48.298;14.424;2023-09-19T11:38:59;23.00;99.90
22147;DHT22;13074;48.298;14.424;2023-09-19T11:41:37;23.00;99.90
22147;DHT22;13074;48.298;14.424;2023-09-19T11:44:33;23.20;99.90
22147;DHT22;13074;48.298;14.424;2023-09-19T11:47:06;23.30;99.90
22147;DHT22;13074;48.298;14.424;2023-09-19T11:49:35;23.60;99.90
22147;DHT22;13074;48.298;14.424;2023-09-19T11:52:06;23.70;99.90
22147;DHT22;13074;48.298;14.424;2023-09-19T11:54:35;23.60;99.90
22147;DHT22;13074;48.298;14.424;2023-09-19T11:57:08;23.40;99.90
22147;DHT22;13074;48.298;14.424;2023-09-19T11:59:38;23.30;99.90
22147;DHT22;13074;48.298;14.424;2023-09-19T12:02:07;23.30;99.90
22147;DHT22;13074;48.298;14.424;2023-09-19T12:04:37;23.30;99.90
22147;DHT22;13074;48.298;14.424;2023-09-19T12:07:06;23.40;99.90
22147;DHT22;13074;48.298;14.424;2023-09-19T12:09:39;23.40;99.90
22147;DHT22;13074;48.298;14.424;2023-09-19T12:12:09;23.40;99.90
22147;DHT22;13074;48.298;14.424;2023-09-19T12:14:38;23.40;99.90
22147;DHT22;13074;48.298;14.424;2023-09-19T12:17:09;23.30;99.90
22147;DHT22;13074;48.298;14.424;2023-09-19T12:19:38;23.50;99.90
22147;DHT22;13074;48.298;14.424;2023-09-19T12:22:06;23.70;99.90
22147;DHT22;13074;48.298;14.424;2023-09-19T12:24:35;23.90;99.90
22147;DHT22;13074;48.298;14.424;2023-09-19T12:27:05;23.90;99.90
22147;DHT22;13074;48.298;14.424;2023-09-19T12:29:42;23.90;99.90
22147;DHT22;13074;48.298;14.424;2023-09-19T12:32:11;23.70;99.90
22147;DHT22;13074;48.298;14.424;2023-09-19T12:34:42;23.70;99.90
22147;DHT22;13074;48.298;14.424;2023-09-19T12:37:18;23.40;99.90
22147;DHT22;13074;48.298;14.424;2023-09-19T12:39:49;23.50;99.90
22147;DHT22;13074;48.298;14.424;2023-09-19T12:42:21;23.60;99.90
22147;DHT22;13074;48.298;14.424;2023-09-19T12:44:49;23.70;99.90
22147;DHT22;13074;48.298;14.424;2023-09-19T12:47:23;23.80;99.90
22147;DHT22;13074;48.298;14.424;2023-09-19T12:50:10;23.90;99.90
22147;DHT22;13074;48.298;14.424;2023-09-19T12:52:45;23.70;99.90
22147;DHT22;13074;48.298;14.424;2023-09-19T12:55:27;23.80;99.90
22147;DHT22;13074;48.298;14.424;2023-09-19T12:58:08;23.90;99.90
22147;DHT22;13074;48.298;14.424;2023-09-19T13:00:37;24.00;99.90
22147;DHT22;13074;48.298;14.424;2023-09-19T13:03:16;24.00;99.90
22147;DHT22;13074;48.298;14.424;2023-09-19T13:05:53;23.90;99.90
22147;DHT22;13074;48.298;14.424;2023-09-19T13:08:23;23.80;99.90
22147;DHT22;13074;48.298;14.424;2023-09-19T13:11:12;23.90;99.90
22147;DHT22;13074;48.298;14.424;2023-09-19T13:13:42;23.80;99.90
22147;DHT22;13074;48.298;14.424;2023-09-19T13:16:10;23.80;99.90
22147;DHT22;13074;48.298;14.424;2023-09-19T13:18:49;23.60;99.90
22147;DHT22;13074;48.298;14.424;2023-09-19T13:21:28;23.40;99.90
22147;DHT22;13074;48.298;14.424;2023-09-19T13:23:56;23.20;99.90
22147;DHT22;13074;48.298;14.424;2023-09-19T13:26:25;23.20;99.90
22147;DHT22;13074;48.298;14.424;2023-09-19T13:28:53;23.10;99.90
22147;DHT22;13074;48.298;14.424;2023-09-19T13:31:21;23.10;99.90
22147;DHT22;13074;48.298;14.424;2023-09-19T13:33:50;23.10;99.90
22147;DHT22;13074;48.298;14.424;2023-09-19T13:36:18;23.20;99.90
22147;DHT22;13074;48.298;14.424;2023-09-19T13:38:45;23.30;99.90
22147;DHT22;13074;48.298;14.424;2023-09-19T13:41:14;23.20;99.90
22147;DHT22;13074;48.298;14.424;2023-09-19T13:43:42;23.20;99.90
22147;DHT22;13074;48.298;14.424;2023-09-19T13:46:14;23.10;99.90
22147;DHT22;13074;48.298;14.424;2023-09-19T13:48:43;23.00;99.90
22147;DHT22;13074;48.298;14.424;2023-09-19T13:51:12;22.80;99.90
22147;DHT22;13074;48.298;14.424;2023-09-19T13:53:40;22.60;99.90
22147;DHT22;13074;48.298;14.424;2023-09-19T13:56:07;21.30;99.90
22147;DHT22;13074;48.298;14.424;2023-09-19T13:58:35;19.70;99.90
22147;DHT22;13074;48.298;14.424;2023-09-19T14:01:02;18.60;99.90
22147;DHT22;13074;48.298;14.424;2023-09-19T14:03:29;17.80;99.90
22147;DHT22;13074;48.298;14.424;2023-09-19T14:05:57;17.10;99.90
22147;DHT22;13074;48.298;14.424;2023-09-19T14:08:25;16.70;99.90
22147;DHT22;13074;48.298;14.424;2023-09-19T14:10:53;16.50;99.90
22147;DHT22;13074;48.298;14.424;2023-09-19T14:13:20;16.50;99.90
22147;DHT22;13074;48.298;14.424;2023-09-19T14:15:47;16.60;99.90
22147;DHT22;13074;48.298;14.424;2023-09-19T14:18:15;16.70;99.90
22147;DHT22;13074;48.298;14.424;2023-09-19T14:20:42;16.70;99.90
22147;DHT22;13074;48.298;14.424;2023-09-19T14:23:09;16.80;99.90
22147;DHT22;13074;48.298;14.424;2023-09-19T14:25:39;17.00;99.90
22147;DHT22;13074;48.298;14.424;2023-09-19T14:28:06;17.20;99.90
22147;DHT22;13074;48.298;14.424;2023-09-19T14:30:34;17.20;99.90
22147;DHT22;13074;48.298;14.424;2023-09-19T14:33:03;17.20;99.90
22147;DHT22;13074;48.298;14.424;2023-09-19T14:35:30;17.30;99.90
22147;DHT22;13074;48.298;14.424;2023-09-19T14:37:57;17.30;99.90
22147;DHT22;13074;48.298;14.424;2023-09-19T14:40:25;17.40;99.90
22147;DHT22;13074;48.298;14.424;2023-09-19T14:42:54;17.40;99.90
22147;DHT22;13074;48.298;14.424;2023-09-19T14:45:21;17.40;99.90
22147;DHT22;13074;48.298;14.424;2023-09-19T14:47:51;17.40;99.90
22147;DHT22;13074;48.298;14.424;2023-09-19T14:50:20;17.50;99.90
22147;DHT22;13074;48.298;14.424;2023-09-19T14:52:48;17.70;99.90
22147;DHT22;13074;48.298;14.424;2023-09-19T14:55:17;17.70;99.90
22147;DHT22;13074;48.298;14.424;2023-09-19T14:57:49;17.80;99.90
22147;DHT22;13074;48.298;14.424;2023-09-19T15:00:19;17.80;99.90
22147;DHT22;13074;48.298;14.424;2023-09-19T15:02:49;18.00;99.90
22147;DHT22;13074;48.298;14.424;2023-09-19T15:05:16;18.10;99.90
22147;DHT22;13074;48.298;14.424;2023-09-19T15:07:44;18.30;99.90
22147;DHT22;13074;48.298;14.424;2023-09-19T15:10:11;18.40;99.90
22147;DHT22;13074;48.298;14.424;2023-09-19T15:12:39;18.40;99.90
22147;DHT22;13074;48.298;14.424;2023-09-19T15:15:07;18.60;99.90
22147;DHT22;13074;48.298;14.424;2023-09-19T15:17:37;18.90;99.90
22147;DHT22;13074;48.298;14.424;2023-09-19T15:20:05;19.20;99.90
22147;DHT22;13074;48.298;14.424;2023-09-19T15:22:33;19.30;99.90
22147;DHT22;13074;48.298;14.424;2023-09-19T15:25:01;19.30;99.90
22147;DHT22;13074;48.298;14.424;2023-09-19T15:27:29;19.30;99.90
22147;DHT22;13074;48.298;14.424;2023-09-19T15:29:58;19.20;99.90
22147;DHT22;13074;48.298;14.424;2023-09-19T15:32:26;19.10;99.90
22147;DHT22;13074;48.298;14.424;2023-09-19T15:34:55;19.00;99.90
22147;DHT22;13074;48.298;14.424;2023-09-19T15:37:22;18.80;99.90